createdAt,value
2023-01-05T00:00:36.646Z,3.13
2023-01-05T00:03:39.941Z,2.37
2023-01-05T00:06:43.330Z,2.53
2023-01-05T00:09:45.922Z,2.37
2023-01-05T00:13:07.266Z,2.40
2023-01-05T00:16:31.013Z,2.30
2023-01-05T00:19:51.334Z,1.93
2023-01-05T00:22:55.108Z,2.37
2023-01-05T00:25:57.872Z,2.37
2023-01-05T00:29:01.807Z,2.30
2023-01-05T00:32:04.454Z,2.10
2023-01-05T00:35:07.651Z,1.80
2023-01-05T00:38:10.885Z,2.50
2023-01-05T00:41:13.477Z,2.10
2023-01-05T00:44:17.434Z,2.50
2023-01-05T00:47:20.241Z,3.27
2023-01-05T00:50:23.806Z,2.57
2023-01-05T00:53:26.395Z,2.27
2023-01-05T00:56:28.968Z,2.20
2023-01-05T00:59:32.938Z,2.53
2023-01-05T01:02:35.575Z,2.10
2023-01-05T01:05:38.160Z,2.43
2023-01-05T01:08:40.799Z,1.90
2023-01-05T01:11:43.514Z,1.93
2023-01-05T01:14:49.686Z,2.40
2023-01-05T01:17:52.341Z,1.97
2023-01-05T01:20:54.924Z,1.87
2023-01-05T01:23:57.553Z,2.80
2023-01-05T01:27:00.199Z,2.27
2023-01-05T01:30:05.489Z,2.00
2023-01-05T01:33:08.106Z,2.97
2023-01-05T01:36:11.246Z,2.07
2023-01-05T01:39:14.466Z,1.80
2023-01-05T01:42:18.218Z,2.17
2023-01-05T01:45:24.256Z,1.83
2023-01-05T01:48:26.940Z,2.00
2023-01-05T01:51:32.815Z,2.00
2023-01-05T01:54:35.485Z,2.23
2023-01-05T01:57:39.389Z,2.13
2023-01-05T02:00:44.091Z,1.93
2023-01-05T02:03:46.923Z,2.13
2023-01-05T02:06:50.897Z,1.80
2023-01-05T02:09:53.642Z,1.77
2023-01-05T02:13:09.443Z,1.60
2023-01-05T02:16:21.278Z,1.83
2023-01-05T02:20:03.827Z,1.93
2023-01-05T02:23:47.245Z,2.00
2023-01-05T02:27:18.557Z,2.37
2023-01-05T02:31:00.424Z,1.83
2023-01-05T02:34:24.138Z,2.47
2023-01-05T02:37:33.249Z,2.00
2023-01-05T02:40:40.506Z,1.60
2023-01-05T02:43:44.913Z,2.03
2023-01-05T02:46:48.036Z,1.73
2023-01-05T02:49:55.591Z,1.60
2023-01-05T02:53:04.510Z,1.70
2023-01-05T02:56:11.247Z,2.10
2023-01-05T02:59:18.788Z,1.63
2023-01-05T03:02:27.095Z,1.87
2023-01-05T03:05:37.424Z,1.80
2023-01-05T03:08:48.159Z,1.40
2023-01-05T03:12:16.819Z,2.27
2023-01-05T03:15:25.114Z,1.53
2023-01-05T03:18:29.103Z,1.90
2023-01-05T03:21:51.231Z,1.73
2023-01-05T03:25:11.574Z,1.60
2023-01-05T03:28:36.413Z,1.93
2023-01-05T03:32:02.140Z,1.40
2023-01-05T03:35:26.849Z,1.67
2023-01-05T03:38:36.173Z,1.20
2023-01-05T03:41:39.890Z,1.47
2023-01-05T03:44:46.027Z,1.30
2023-01-05T03:47:49.296Z,1.50
2023-01-05T03:50:52.020Z,1.60
2023-01-05T03:53:56.033Z,1.23
2023-01-05T03:56:58.618Z,1.70
2023-01-05T04:00:01.196Z,1.47
2023-01-05T04:03:04.042Z,1.50
2023-01-05T04:06:07.206Z,1.57
2023-01-05T04:09:11.150Z,1.30
2023-01-05T04:12:13.746Z,1.60
2023-01-05T04:15:16.522Z,1.37
2023-01-05T04:18:19.088Z,1.60
2023-01-05T04:21:21.704Z,1.40
2023-01-05T04:24:25.679Z,1.23
2023-01-05T04:27:28.326Z,1.67
2023-01-05T04:30:30.949Z,1.60
2023-01-05T04:33:33.684Z,1.53
2023-01-05T04:36:36.256Z,1.50
2023-01-05T04:39:40.184Z,1.87
2023-01-05T04:42:42.763Z,1.50
2023-01-05T04:45:47.439Z,1.87
2023-01-05T04:48:50.053Z,1.60
2023-01-05T04:51:52.646Z,1.60
2023-01-05T04:54:56.627Z,1.43
2023-01-05T04:57:59.261Z,1.63
2023-01-05T05:01:01.880Z,1.63
2023-01-05T05:04:04.675Z,1.77
2023-01-05T05:07:07.399Z,2.10
2023-01-05T05:10:11.533Z,1.53
2023-01-05T05:13:14.149Z,1.20
2023-01-05T05:16:17.000Z,1.57
2023-01-05T05:19:19.629Z,1.60
2023-01-05T05:22:22.231Z,3.40
2023-01-05T05:25:26.236Z,2.20
2023-01-05T05:28:28.989Z,2.87
2023-01-05T05:31:31.936Z,1.50
2023-01-05T05:34:34.586Z,1.43
2023-01-05T05:37:37.157Z,1.40
2023-01-05T05:40:41.092Z,1.63
2023-01-05T05:43:43.685Z,1.30
2023-01-05T05:46:46.297Z,1.17
2023-01-05T05:49:48.944Z,1.40
2023-01-05T05:52:51.576Z,1.30
2023-01-05T05:55:55.545Z,1.77
2023-01-05T05:59:01.550Z,1.73
2023-01-05T06:02:04.703Z,1.43
2023-01-05T06:05:08.255Z,1.37
2023-01-05T06:08:10.859Z,2.17
2023-01-05T06:11:14.844Z,1.60
2023-01-05T06:14:17.757Z,1.70
2023-01-05T06:17:20.413Z,1.77
2023-01-05T06:20:23.033Z,1.80
2023-01-05T06:23:25.680Z,1.77
2023-01-05T06:26:29.752Z,2.30
2023-01-05T06:29:32.328Z,1.93
2023-01-05T06:32:34.957Z,1.83
2023-01-05T06:35:37.546Z,1.50
2023-01-05T06:38:40.144Z,1.93
2023-01-05T06:41:44.097Z,1.67
2023-01-05T06:44:46.709Z,1.83
2023-01-05T06:47:49.307Z,1.70
2023-01-05T06:50:51.941Z,1.70
2023-01-05T06:53:54.519Z,1.63
2023-01-05T06:56:58.510Z,1.70
2023-01-05T07:00:01.107Z,1.70
2023-01-05T07:03:03.908Z,2.20
2023-01-05T07:06:11.453Z,1.70
2023-01-05T07:09:17.339Z,2.43
2023-01-05T07:12:21.791Z,1.90
2023-01-05T07:15:24.398Z,2.27
2023-01-05T07:18:26.997Z,2.00
2023-01-05T07:21:29.628Z,2.40
2023-01-05T07:24:32.216Z,1.73
2023-01-05T07:27:36.155Z,2.43
2023-01-05T07:30:38.726Z,2.20
2023-01-05T07:33:41.304Z,1.90
2023-01-05T07:36:43.892Z,2.27
2023-01-05T07:39:46.510Z,2.30
2023-01-05T07:42:52.790Z,2.23
2023-01-05T07:45:59.033Z,2.33
2023-01-05T07:49:02.195Z,2.10
2023-01-05T07:52:05.145Z,2.63
2023-01-05T07:55:08.407Z,2.87
2023-01-05T07:58:12.366Z,2.33
2023-01-05T08:01:18.291Z,1.97
2023-01-05T08:04:21.104Z,2.00
2023-01-05T08:07:23.812Z,2.33
2023-01-05T08:10:29.347Z,2.43
2023-01-05T08:13:50.811Z,2.07
2023-01-05T08:16:53.444Z,2.50
2023-01-05T08:19:56.188Z,2.70
2023-01-05T08:22:58.840Z,2.70
2023-01-05T08:26:06.210Z,2.63
2023-01-05T08:29:10.519Z,3.07
2023-01-05T08:32:13.140Z,3.13
2023-01-05T08:35:15.990Z,2.67
2023-01-05T08:38:18.564Z,3.50
2023-01-05T08:41:22.339Z,2.67
2023-01-05T08:44:26.275Z,2.93
2023-01-05T08:47:28.862Z,2.47
2023-01-05T08:50:31.710Z,2.43
2023-01-05T08:53:35.474Z,2.43
2023-01-05T08:56:39.245Z,3.10
2023-01-05T08:59:43.570Z,2.40
2023-01-05T09:02:46.324Z,2.40
2023-01-05T09:05:49.109Z,2.63
2023-01-05T09:08:51.699Z,2.87
2023-01-05T09:11:54.303Z,2.67
2023-01-05T09:14:58.296Z,2.67
2023-01-05T09:18:00.911Z,2.60
2023-01-05T09:21:04.010Z,2.83
2023-01-05T09:24:07.377Z,2.33
2023-01-05T09:27:10.660Z,1.90
2023-01-05T09:30:17.361Z,2.17
2023-01-05T09:33:20.096Z,1.90
2023-01-05T09:36:22.676Z,2.87
2023-01-05T09:39:25.450Z,2.37
2023-01-05T09:42:30.914Z,2.63
2023-01-05T09:45:34.908Z,2.27
2023-01-05T09:48:41.968Z,2.60
2023-01-05T09:51:45.035Z,2.53
2023-01-05T09:54:47.684Z,2.60
2023-01-05T09:57:54.807Z,2.10
2023-01-05T10:01:07.446Z,2.73
2023-01-05T10:04:15.727Z,2.67
2023-01-05T10:07:28.022Z,2.73
2023-01-05T10:10:44.456Z,3.20
2023-01-05T10:13:57.595Z,2.63
2023-01-05T10:17:38.620Z,2.70
2023-01-05T10:20:32.717Z,3.43
2023-01-05T10:23:56.964Z,3.03
2023-01-05T10:30:44.300Z,2.83
2023-01-05T10:33:55.837Z,2.70
2023-01-05T10:37:14.062Z,2.27
2023-01-05T10:40:28.297Z,2.70
2023-01-05T10:43:46.521Z,2.87
2023-01-05T10:46:52.637Z,2.53
2023-01-05T10:49:57.393Z,2.30
2023-01-05T10:53:09.081Z,2.20
2023-01-05T10:56:15.806Z,2.37
2023-01-05T10:59:18.513Z,2.00
2023-01-05T11:02:21.377Z,2.17
2023-01-05T11:05:33.310Z,2.57
2023-01-05T11:08:37.207Z,2.30
2023-01-05T11:11:41.019Z,2.23
2023-01-05T11:14:46.054Z,2.60
2023-01-05T11:17:49.121Z,2.77
2023-01-05T11:21:12.293Z,2.00
2023-01-05T11:24:29.550Z,1.87
2023-01-05T11:27:32.160Z,2.10
2023-01-05T11:30:35.670Z,2.50
2023-01-05T11:33:39.618Z,1.80
2023-01-05T11:36:44.851Z,2.47
2023-01-05T11:39:50.997Z,2.00
2023-01-05T11:42:54.017Z,2.37
2023-01-05T11:45:59.612Z,2.10
2023-01-05T11:49:02.352Z,2.07
2023-01-05T11:52:26.215Z,2.00
2023-01-05T11:55:35.002Z,2.07
2023-01-05T11:58:43.847Z,2.90
2023-01-05T12:02:00.945Z,2.43
2023-01-05T12:05:22.672Z,2.83
2023-01-05T12:08:32.085Z,2.17
2023-01-05T12:11:41.193Z,2.50
2023-01-05T12:15:08.804Z,2.77
2023-01-05T12:18:25.491Z,2.97
2023-01-05T12:21:32.478Z,2.77
2023-01-05T12:24:48.825Z,2.20
2023-01-05T12:28:12.022Z,1.93
2023-01-05T12:35:42.485Z,2.50
2023-01-05T12:38:53.474Z,2.43
2023-01-05T12:42:18.617Z,1.77
2023-01-05T12:45:39.864Z,2.20
2023-01-05T12:48:48.196Z,2.33
2023-01-05T12:51:57.097Z,1.97
2023-01-05T12:55:06.949Z,2.10
2023-01-05T12:58:16.811Z,2.10
2023-01-05T13:01:24.728Z,2.70
2023-01-05T13:04:46.306Z,1.83
2023-01-05T13:07:54.979Z,2.20
2023-01-05T13:11:03.653Z,1.97
2023-01-05T13:14:17.510Z,1.77
2023-01-05T13:17:26.644Z,1.90
2023-01-05T13:20:36.927Z,1.97
2023-01-05T13:23:43.836Z,1.63
2023-01-05T13:26:46.437Z,1.63
2023-01-05T13:29:54.218Z,1.63
2023-01-05T13:33:14.388Z,1.50
2023-01-05T13:36:31.434Z,1.97
2023-01-05T13:39:57.322Z,2.40
2023-01-05T13:43:19.732Z,1.87
2023-01-05T13:46:49.702Z,1.47
2023-01-05T13:50:15.915Z,1.23
2023-01-05T13:53:24.659Z,1.50
2023-01-05T13:56:30.061Z,1.53
2023-01-05T13:59:44.210Z,1.13
2023-01-05T14:03:02.001Z,1.60
2023-01-05T14:06:09.563Z,1.63
2023-01-05T14:09:17.591Z,1.40
2023-01-05T14:12:46.331Z,1.30
2023-01-05T14:15:48.975Z,2.13
2023-01-05T14:18:53.942Z,1.43
2023-01-05T14:22:05.849Z,2.87
2023-01-05T14:25:47.802Z,2.13
2023-01-05T14:28:50.430Z,2.17
2023-01-05T14:31:53.102Z,2.50
2023-01-05T14:35:01.549Z,2.10
2023-01-05T14:38:06.831Z,1.83
2023-01-05T14:41:26.608Z,1.70
2023-01-05T14:44:34.616Z,1.30
2023-01-05T14:47:42.072Z,1.40
2023-01-05T14:50:46.032Z,1.30
2023-01-05T14:53:50.560Z,1.60
2023-01-05T14:57:26.350Z,1.67
2023-01-05T15:00:52.811Z,1.50
2023-01-05T15:04:01.586Z,1.60
2023-01-05T15:07:32.709Z,2.20
2023-01-05T15:11:00.257Z,2.33
2023-01-05T15:14:34.984Z,1.87
2023-01-05T15:18:25.378Z,1.87
2023-01-05T15:21:48.956Z,1.90
2023-01-05T15:25:07.103Z,1.93
2023-01-05T15:28:56.001Z,1.70
2023-01-05T15:32:03.015Z,1.80
2023-01-05T15:35:13.483Z,2.00
2023-01-05T15:38:24.263Z,1.83
2023-01-05T15:41:29.632Z,2.20
2023-01-05T15:44:38.110Z,2.50
2023-01-05T15:47:40.934Z,1.67
2023-01-05T15:50:46.947Z,1.50
2023-01-05T15:53:54.981Z,1.70
2023-01-05T15:57:00.660Z,1.70
2023-01-05T16:00:04.238Z,2.30
2023-01-05T16:03:21.233Z,2.00
2023-01-05T16:06:27.419Z,1.90
2023-01-05T16:09:34.976Z,1.70
2023-01-05T16:12:39.007Z,2.93
2023-01-05T16:15:43.242Z,5.33
2023-01-05T16:18:51.467Z,2.33
2023-01-05T16:21:58.706Z,3.43
2023-01-05T16:25:06.649Z,1.97
2023-01-05T16:28:17.305Z,3.00
2023-01-05T16:31:28.111Z,2.23
2023-01-05T16:34:31.478Z,2.30
2023-01-05T16:37:34.075Z,2.70
2023-01-05T16:40:37.808Z,4.90
2023-01-05T16:43:47.908Z,2.13
2023-01-05T16:47:05.820Z,2.03
2023-01-05T16:50:55.149Z,2.07
2023-01-05T16:54:04.841Z,2.33
2023-01-05T16:57:33.619Z,7.53
2023-01-05T17:00:39.823Z,4.17
2023-01-05T17:03:43.327Z,2.87
2023-01-05T17:06:48.349Z,3.53
2023-01-05T17:09:51.424Z,2.17
2023-01-05T17:12:58.784Z,2.60
2023-01-05T17:16:03.861Z,3.03
2023-01-05T17:19:12.766Z,2.13
2023-01-05T17:22:15.389Z,2.13
2023-01-05T17:25:18.192Z,2.30
2023-01-05T17:28:22.139Z,2.30
2023-01-05T17:31:26.581Z,2.00
2023-01-05T17:34:29.359Z,4.67
2023-01-05T17:37:31.953Z,2.87
2023-01-05T17:40:34.792Z,2.40
2023-01-05T17:43:37.418Z,2.33
2023-01-05T17:46:43.562Z,2.60
2023-01-05T17:49:46.467Z,2.30
2023-01-05T17:52:49.185Z,2.70
2023-01-05T17:55:51.792Z,2.83
2023-01-05T17:58:54.429Z,3.30
2023-01-05T18:01:58.510Z,2.73
2023-01-05T18:05:01.130Z,3.00
2023-01-05T18:11:11.261Z,2.73
2023-01-05T18:14:13.901Z,3.30
2023-01-05T18:17:17.892Z,2.83
2023-01-05T18:20:21.463Z,3.30
2023-01-05T18:23:24.412Z,3.80
2023-01-05T18:26:27.031Z,3.53
2023-01-05T18:29:29.641Z,4.40
2023-01-05T18:32:33.830Z,5.10
2023-01-05T18:35:38.551Z,5.20
2023-01-05T18:38:43.376Z,5.13
2023-01-05T18:41:45.979Z,4.57
2023-01-05T18:44:48.558Z,4.57
2023-01-05T18:47:52.517Z,4.50
2023-01-05T18:50:55.156Z,4.87
2023-01-05T18:53:57.763Z,6.13
2023-01-05T18:57:00.367Z,5.80
2023-01-05T19:00:03.669Z,6.37
2023-01-05T19:03:07.767Z,7.30
2023-01-05T19:06:13.881Z,7.63
2023-01-05T19:09:17.560Z,8.43
2023-01-05T19:12:20.259Z,7.67
2023-01-05T19:15:22.856Z,10.60
2023-01-05T19:18:26.801Z,10.07
2023-01-05T19:21:31.357Z,10.60
2023-01-05T19:24:35.243Z,9.00
2023-01-05T19:27:37.847Z,7.70
2023-01-05T19:30:40.431Z,7.13
2023-01-05T19:33:44.795Z,7.00
2023-01-05T19:36:48.137Z,7.07
2023-01-05T19:39:50.724Z,6.43
2023-01-05T19:42:53.363Z,7.63
2023-01-05T19:45:59.144Z,8.90
2023-01-05T19:49:03.297Z,9.63
2023-01-05T19:52:06.008Z,8.77
2023-01-05T19:55:10.613Z,8.03
2023-01-05T19:58:13.273Z,6.97
2023-01-05T20:01:17.045Z,6.80
2023-01-05T20:04:21.208Z,6.67
2023-01-05T20:07:23.829Z,6.53
2023-01-05T20:10:26.441Z,7.03
2023-01-05T20:13:29.009Z,6.10
2023-01-05T20:16:32.315Z,6.70
2023-01-05T20:19:37.561Z,5.80
2023-01-05T20:22:40.867Z,6.20
2023-01-05T20:25:43.435Z,5.70
2023-01-05T20:28:47.121Z,5.33
2023-01-05T20:31:54.718Z,5.17
2023-01-05T20:35:00.722Z,4.97
2023-01-05T20:38:03.343Z,5.37
2023-01-05T20:41:14.109Z,4.60
2023-01-05T20:44:19.874Z,4.63
2023-01-05T20:47:22.455Z,5.17
2023-01-05T20:50:26.571Z,4.87
2023-01-05T20:53:29.175Z,4.87
2023-01-05T20:56:38.338Z,5.00
2023-01-05T20:59:41.259Z,4.70
2023-01-05T21:02:45.204Z,3.80
2023-01-05T21:05:49.277Z,4.70
2023-01-05T21:08:52.469Z,5.17
2023-01-05T21:11:55.090Z,4.10
2023-01-05T21:14:57.662Z,4.33
2023-01-05T21:18:00.252Z,4.00
2023-01-05T21:21:06.156Z,4.40
2023-01-05T21:24:09.089Z,3.30
2023-01-05T21:27:11.875Z,4.03
2023-01-05T21:30:14.674Z,3.17
2023-01-05T21:33:17.324Z,3.83
2023-01-05T21:36:24.247Z,3.33
2023-01-05T21:39:28.359Z,3.60
2023-01-05T21:42:45.097Z,3.50
2023-01-05T21:45:47.724Z,3.63
2023-01-05T21:48:50.311Z,3.47
2023-01-05T21:52:11.969Z,3.60
2023-01-05T21:55:32.444Z,3.13
2023-01-05T21:58:35.969Z,3.37
2023-01-05T22:01:39.892Z,3.43
2023-01-05T22:04:43.294Z,3.60
2023-01-05T22:07:47.463Z,3.00
2023-01-05T22:10:55.139Z,3.50
2023-01-05T22:13:57.719Z,3.40
2023-01-05T22:17:00.928Z,3.00
2023-01-05T22:20:03.528Z,3.53
2023-01-05T22:23:07.515Z,3.00
2023-01-05T22:26:12.255Z,3.70
2023-01-05T22:29:14.904Z,3.43
2023-01-05T22:32:17.484Z,3.63
2023-01-05T22:35:20.094Z,3.40
2023-01-05T22:38:24.022Z,3.17
2023-01-05T22:41:29.808Z,3.50
2023-01-05T22:44:32.404Z,3.80
2023-01-05T22:47:35.065Z,4.40
2023-01-05T22:50:37.665Z,3.93
2023-01-05T22:53:42.601Z,4.03
2023-01-05T22:56:45.184Z,3.60
2023-01-05T22:59:47.798Z,3.63
2023-01-05T23:02:50.429Z,3.47
2023-01-05T23:05:54.265Z,3.50
2023-01-05T23:08:59.275Z,3.47
2023-01-05T23:12:02.201Z,3.70
2023-01-05T23:15:05.410Z,3.20
2023-01-05T23:18:07.983Z,3.93
2023-01-05T23:21:12.493Z,3.30
2023-01-05T23:24:16.689Z,3.50
2023-01-05T23:27:19.259Z,3.33
2023-01-05T23:30:21.880Z,2.93
2023-01-05T23:33:26.320Z,3.30
2023-01-05T23:36:29.005Z,3.13
2023-01-05T23:39:32.963Z,2.60
2023-01-05T23:42:46.160Z,2.60
2023-01-05T23:45:49.733Z,2.80
2023-01-05T23:48:53.267Z,2.67
2023-01-05T23:51:55.858Z,3.50
2023-01-05T23:54:59.823Z,2.87
2023-01-05T23:58:02.759Z,2.93
